Hauptseite
METAR-TAF:

METAR-TAF

Flughäfen :

Flughafen Heringsdorf

Heringsdorf, Deutschland

Breite: 53-53N, Länge: 014-09E, Höhe: 28 m

Beobachtung

Neuester Wetterbericht von vor 10 Stunden und 19 Minuten, um 14:50 UTC
Wind 6 kt aus West/Nordwest, variierte zwischen West/Südwest und Nord/Nordwest
Temperatur 6°C
Luftfeuchtigkeit 81%
Luftdruck 1009 hPa
Sichtweite 10 km oder mehr
Aufgelockert bewölkt in der Höhe von 3000 ft

METAR: EDAH 071450Z 30006KT 250V340 9999 SCT030 06/03 Q1009

Zeit: 03:09 (01:09 UTC)

Prognose

Neuester Wetterbericht von vor 11 Stunden und 9 Minuten, um 14:00 UTC
Gültige Prognose vom 07 um 15 UTC bis 07 um 24 UTC
Wind 9 kt aus West
Sichtweite 10 km oder mehr
Aufgelockert bewölkt in der Höhe von 4000 ft

TAF: EDAH 071400Z 0715/0724 28009KT 9999 SCT040

Wetterbeobachtungen und Prognosen von mehr als 4000 Flughäfen (METAR und TAF Bericht).

Die verfügbaren Stationen werden durch gelbe und rote Markierungen auf der Karte dargestellt.

Führen Sie die Maus auf sie, um den Namen der Station zu sehen.

Darauf klicken, um die Beobachtung von Wetterbeobachtungen und Prognosen zu sehen.

Um die Karte zu ändern : klicken Sie auf den grünen Tasten mit einem schwarzen Kreuz Zum Vergrößern, auf den grünen Button mit einem Gedankenstrich zu verkleinern, oder auf die grünen Pfeile für benachbarte Karten.


METAR-TAF: